Storm Events Database

Event Details

Event Hail
Magnitude 0.75 in.
State NEBRASKA
County/Area DEUEL
WFO LBF
Report Source Public
NCDC Data Source CSV
Begin Date 2011-05-30 15:45:00.0 MST-7
Begin Location 10NNW BIG SPGS
Begin Lat/Lon 41.21/-102.14
End Date 2011-05-30 15:45:00.0 MST-7
Deaths Direct/Indirect 0/0 (fatality details below, when available...)
Injuries Direct/Indirect 0/0
Property Damage 0.00K
Crop Damage 0.00K
Episode Narrative A powerful low pressure system moved across western and north central Nebraska on Memorial Day. Thunderstorms developed along a cold front extending across central Nebraska. The storms tracked quickly northeast to produce hail up to 4 inches in diameter, damaging winds and several tornadoes.
Event Narrative


     ‚Äč



All events for this episode:

Location County/Zone St. Date Time T.Z. Type Mag Dth Inj PrD CrD
Totals: 0 0 1.121M 0.00K
DUNNING BLAINE CO. NE 05/30/2011 14:28 CST-6 Hail 1.00 in. 0 0 0.00K 0.00K
DUNNING BLAINE CO. NE 05/30/2011 14:30 CST-6 Hail 1.00 in. 0 0 0.00K 0.00K
DUNNING BLAINE CO. NE 05/30/2011 14:52 CST-6 Hail 1.00 in. 0 0 0.00K 0.00K
BREWSTER BLAINE CO. NE 05/30/2011 15:01 CST-6 Hail 1.00 in. 0 0 0.00K 0.00K
NEWPORT ROCK CO. NE 05/30/2011 15:10 CST-6 Hail 1.00 in. 0 0 0.00K 0.00K
LONG PINE BROWN CO. NE 05/30/2011 15:20 CST-6 Hail 1.00 in. 0 0 0.00K 0.00K
ROSE ROCK CO. NE 05/30/2011 15:20 CST-6 Hail 1.25 in. 0 0 5.00K 0.00K
ROSE ROCK CO. NE 05/30/2011 15:20 CST-6 Tornado EF0 0 0 0.00K 0.00K
ROSE ROCK CO. NE 05/30/2011 15:25 CST-6 Hail 2.50 in. 0 0 1.00K 0.00K
DUNNING BLAINE CO. NE 05/30/2011 15:34 CST-6 Funnel Cloud 0 0 0.00K 0.00K
ROSE ROCK CO. NE 05/30/2011 15:35 CST-6 Hail 2.75 in. 0 0 0.00K 0.00K
ROSE ROCK CO. NE 05/30/2011 15:36 CST-6 Hail 2.75 in. 0 0 100.00K 0.00K
LEWELLEN GARDEN CO. NE 05/30/2011 15:40 MST-7 Hail 1.00 in. 0 0 0.00K 0.00K
BIG SPGS DEUEL CO. NE 05/30/2011 15:45 MST-7 Hail 0.75 in. 0 0 0.00K 0.00K
ROSE ROCK CO. NE 05/30/2011 15:45 CST-6 Hail 2.50 in. 0 0 0.00K 0.00K
BREWSTER BLAINE CO. NE 05/30/2011 15:47 CST-6 Tornado EF0 0 0 0.00K 0.00K
BREWSTER BLAINE CO. NE 05/30/2011 15:47 CST-6 Funnel Cloud 0 0 0.00K 0.00K
OGALLALA KEITH CO. NE 05/30/2011 15:55 MST-7 Thunderstorm Wind 55 kts. MG 0 0 0.00K 0.00K
ATKINSON HOLT CO. NE 05/30/2011 16:00 CST-6 Hail 2.75 in. 0 0 0.00K 0.00K
OGALLALA KEITH CO. NE 05/30/2011 16:02 MST-7 Thunderstorm Wind 52 kts. MG 0 0 0.00K 0.00K
ATKINSON HOLT CO. NE 05/30/2011 16:05 CST-6 Tornado EF0 0 0 0.00K 0.00K
ATKINSON HOLT CO. NE 05/30/2011 16:10 CST-6 Hail 4.00 in. 0 0 0.00K 0.00K
NAPER BOYD CO. NE 05/30/2011 16:10 CST-6 Hail 1.00 in. 0 0 0.00K 0.00K
ATKINSON HOLT CO. NE 05/30/2011 16:11 CST-6 Hail 2.75 in. 0 0 0.00K 0.00K
ATKINSON HOLT CO. NE 05/30/2011 16:11 CST-6 Hail 2.75 in. 0 0 0.00K 0.00K
ROSE ROCK CO. NE 05/30/2011 16:12 CST-6 Hail 2.75 in. 0 0 0.00K 0.00K
ATKINSON HOLT CO. NE 05/30/2011 16:13 CST-6 Hail 2.75 in. 0 0 0.00K 0.00K
STUART HOLT CO. NE 05/30/2011 16:13 CST-6 Hail 1.75 in. 0 0 0.00K 0.00K
ATKINSON HOLT CO. NE 05/30/2011 16:16 CST-6 Hail 2.00 in. 0 0 0.00K 0.00K
ATKINSON HOLT CO. NE 05/30/2011 16:17 CST-6 Hail 4.00 in. 0 0 0.00K 0.00K
EMMET HOLT CO. NE 05/30/2011 16:20 CST-6 Thunderstorm Wind 70 kts. EG 0 0 1.000M 0.00K
DUNNING BLAINE CO. NE 05/30/2011 16:40 CST-6 Hail 1.00 in. 0 0 0.00K 0.00K
BREWSTER BLAINE CO. NE 05/30/2011 16:45 CST-6 Hail 1.00 in. 0 0 0.00K 0.00K
BREWSTER BLAINE CO. NE 05/30/2011 16:52 CST-6 Hail 1.00 in. 0 0 0.00K 0.00K
ATKINSON HOLT CO. NE 05/30/2011 17:26 CST-6 Hail 1.75 in. 0 0 0.00K 0.00K
ATKINSON HOLT CO. NE 05/30/2011 17:26 CST-6 Hail 1.75 in. 0 0 0.00K 0.00K
EMMET HOLT CO. NE 05/30/2011 17:35 CST-6 Hail 0.88 in. 0 0 0.00K 0.00K
CALLAWAY CUSTER CO. NE 05/30/2011 17:45 CST-6 Hail 1.75 in. 0 0 0.00K 0.00K
O NEILL HOLT CO. NE 05/30/2011 17:46 CST-6 Funnel Cloud 0 0 0.00K 0.00K
O NEILL HOLT CO. NE 05/30/2011 17:52 CST-6 Tornado EF0 0 0 0.00K 0.00K
BREWSTER BLAINE CO. NE 05/30/2011 18:05 CST-6 Hail 1.00 in. 0 0 0.00K 0.00K
CALLAWAY CUSTER CO. NE 05/30/2011 18:05 CST-6 Hail 1.00 in. 0 0 0.00K 0.00K
ANSELMO CUSTER CO. NE 05/30/2011 18:10 CST-6 Hail 1.00 in. 0 0 0.00K 0.00K
ANSELMO CUSTER CO. NE 05/30/2011 18:30 CST-6 Hail 1.00 in. 0 0 0.00K 0.00K
ANSLEY CUSTER CO. NE 05/30/2011 19:20 CST-6 Thunderstorm Wind 60 kts. EG 0 0 15.00K 0.00K
Totals: 0 0 1.121M 0.00K